Time;durP1;ratioP1;P1;durP2;ratioP2;P2;SDS_P1;SDS_P2;PMS_P1;PMS_P2;Temp;Humidity;BMP_temperature;BMP_pressure;BME280_temperature;BME280_humidity;BME280_pressure;Samples;Min_cycle;Max_cycle;Signal;HPM_P1;HPM_P2
2022/10/23 00:01:30;;;;;;;15.10;4.60;;;14.60;99.90;;;;;;4952504;28;20028;-73
2022/10/23 00:04:08;;;;;;;16.02;4.50;;;14.60;99.90;;;;;;4957179;28;20039;-72
2022/10/23 00:06:34;;;;;;;9.98;4.22;;;14.70;99.90;;;;;;4952979;28;20023;-73
2022/10/23 00:09:02;;;;;;;12.18;5.05;;;14.60;99.90;;;;;;4958772;28;20108;-74
2022/10/23 00:11:29;;;;;;;18.95;5.13;;;14.60;99.90;;;;;;4959421;28;20031;-73
2022/10/23 00:13:59;;;;;;;15.05;4.82;;;14.70;99.90;;;;;;4952993;28;20408;-74
2022/10/23 00:16:27;;;;;;;14.75;5.15;;;14.70;99.90;;;;;;4959224;28;20037;-72
2022/10/23 00:18:55;;;;;;;14.73;4.60;;;14.70;99.90;;;;;;4953724;28;20437;-72
2022/10/23 00:21:23;;;;;;;12.90;4.68;;;14.70;99.90;;;;;;4960503;28;20041;-73
2022/10/23 00:23:52;;;;;;;9.75;4.63;;;14.60;99.90;;;;;;4958196;28;20024;-74
2022/10/23 00:26:18;;;;;;;14.32;4.57;;;14.70;99.90;;;;;;4963320;28;20101;-74
2022/10/23 00:28:49;;;;;;;14.18;4.57;;;14.70;99.90;;;;;;4956827;28;20049;-76
2022/10/23 00:31:15;;;;;;;18.23;4.80;;;14.60;99.90;;;;;;4961865;28;20059;-75
2022/10/23 00:33:41;;;;;;;13.40;5.00;;;14.70;99.90;;;;;;4966723;28;20074;-74
2022/10/23 00:36:09;;;;;;;14.93;4.63;;;14.70;99.90;;;;;;4963335;28;20042;-75
2022/10/23 00:38:36;;;;;;;13.65;5.10;;;14.70;99.90;;;;;;4953919;28;20452;-76
2022/10/23 00:41:02;;;;;;;15.85;4.88;;;14.60;99.90;;;;;;4957536;28;20154;-77
2022/10/23 00:43:31;;;;;;;11.63;4.47;;;14.60;99.90;;;;;;4956905;28;20028;-73
2022/10/23 00:45:56;;;;;;;11.60;4.13;;;14.60;99.90;;;;;;4950586;28;20058;-72
2022/10/23 00:48:26;;;;;;;14.57;4.30;;;14.60;99.90;;;;;;4955121;28;20031;-73
2022/10/23 00:50:52;;;;;;;9.75;5.00;;;14.50;99.90;;;;;;4958084;28;20027;-75
2022/10/23 00:53:19;;;;;;;14.00;5.40;;;14.50;99.90;;;;;;4958457;28;20034;-73
2022/10/23 00:55:47;;;;;;;13.20;4.68;;;14.50;99.90;;;;;;4958063;28;20166;-75
2022/10/23 00:58:17;;;;;;;15.00;5.50;;;14.40;99.90;;;;;;4947779;28;20038;-74
2022/10/23 01:00:46;;;;;;;20.38;4.57;;;14.50;99.90;;;;;;4954189;28;20020;-72
2022/10/23 01:03:14;;;;;;;14.95;4.70;;;14.50;99.90;;;;;;4954041;28;20027;-73
2022/10/23 01:05:50;;;;;;;12.57;4.68;;;14.40;99.90;;;;;;4953348;28;20553;-74
2022/10/23 01:08:34;;;;;;;12.80;4.55;;;14.40;99.90;;;;;;4956329;28;20581;-73
2022/10/23 01:11:27;;;;;;;18.70;4.88;;;14.40;99.90;;;;;;4958133;28;20131;-73
2022/10/23 01:14:07;;;;;;;11.38;4.38;;;14.30;99.90;;;;;;4953057;28;20038;-73
2022/10/23 01:16:47;;;;;;;18.88;5.13;;;14.30;99.90;;;;;;4953922;28;20090;-73
2022/10/23 01:19:34;;;;;;;12.55;4.93;;;14.20;99.90;;;;;;4967462;28;20060;-73
2022/10/23 01:22:21;;;;;;;12.25;4.55;;;14.20;99.90;;;;;;4954558;28;20042;-73
2022/10/23 01:24:59;;;;;;;17.92;5.20;;;14.20;99.90;;;;;;4955734;28;20043;-73
2022/10/23 01:27:32;;;;;;;13.15;5.35;;;14.20;99.90;;;;;;4959664;28;20038;-73
2022/10/23 01:30:04;;;;;;;;;;;14.20;99.90;;;;;;4953936;28;20111;-75
2022/10/23 01:32:30;;;;;;;18.23;5.27;;;14.20;99.90;;;;;;4958948;28;19980;-73
2022/10/23 01:35:07;;;;;;;16.60;5.63;;;14.20;99.90;;;;;;4957499;28;20032;-72
2022/10/23 01:37:44;;;;;;;10.77;4.80;;;14.20;99.90;;;;;;4948944;28;20030;-72
2022/10/23 01:40:24;;;;;;;24.05;4.88;;;14.20;99.90;;;;;;4962343;28;20114;-71
2022/10/23 01:42:55;;;;;;;12.35;4.55;;;14.20;99.90;;;;;;4962781;28;20103;-73
2022/10/23 01:45:31;;;;;;;14.85;4.55;;;14.20;99.90;;;;;;4963286;28;20045;-73
2022/10/23 01:47:59;;;;;;;15.20;5.03;;;14.20;99.90;;;;;;4954840;28;20042;-73
2022/10/23 01:50:26;;;;;;;9.02;4.55;;;14.20;99.90;;;;;;4954648;28;20032;-73
2022/10/23 01:52:54;;;;;;;15.43;4.65;;;14.20;99.90;;;;;;4955100;28;20042;-73
2022/10/23 01:55:22;;;;;;;11.82;5.10;;;14.20;99.90;;;;;;4956518;28;20035;-73
2022/10/23 01:57:51;;;;;;;18.73;4.82;;;14.20;99.90;;;;;;4958673;28;20024;-72
2022/10/23 02:00:18;;;;;;;14.05;4.82;;;14.20;99.90;;;;;;4954099;28;20038;-74
2022/10/23 02:02:47;;;;;;;10.25;4.90;;;14.20;99.90;;;;;;4956218;28;20027;-70
2022/10/23 02:05:20;;;;;;;17.38;5.20;;;14.20;99.90;;;;;;4954036;28;20063;-73
2022/10/23 02:07:46;;;;;;;11.07;4.25;;;14.20;99.90;;;;;;4954489;28;20055;-74
2022/10/23 02:10:13;;;;;;;11.43;4.57;;;14.30;99.90;;;;;;4949160;28;20333;-72
2022/10/23 02:12:38;;;;;;;11.75;4.45;;;14.30;99.90;;;;;;4943814;28;20031;-72
2022/10/23 02:15:44;;;;;;;11.95;4.50;;;14.30;99.90;;;;;;4952779;28;20027;-72
2022/10/23 02:18:28;;;;;;;18.55;4.93;;;14.30;99.90;;;;;;4947071;28;20031;-72
2022/10/23 02:21:03;;;;;;;12.43;4.85;;;14.40;99.90;;;;;;4954501;28;20049;-73
2022/10/23 02:23:37;;;;;;;17.33;4.38;;;14.40;99.90;;;;;;4957160;28;20096;-73
2022/10/23 02:26:16;;;;;;;11.00;4.68;;;14.40;99.90;;;;;;4950355;28;20031;-71
2022/10/23 02:29:13;;;;;;;14.20;4.38;;;14.50;99.90;;;;;;4957994;28;20445;-73
2022/10/23 02:31:39;;;;;;;17.35;4.30;;;14.40;99.90;;;;;;4952634;28;20036;-72
2022/10/23 02:34:07;;;;;;;12.13;4.45;;;14.40;99.90;;;;;;4949949;28;20038;-74
2022/10/23 02:36:32;;;;;;;10.13;4.28;;;14.40;99.90;;;;;;4955353;28;20368;-73
2022/10/23 02:39:01;;;;;;;14.13;4.63;;;14.40;99.90;;;;;;4953001;28;20019;-73
2022/10/23 02:41:29;;;;;;;10.50;4.60;;;14.40;99.90;;;;;;4961901;28;20027;-73
2022/10/23 02:44:18;;;;;;;12.27;4.32;;;14.30;99.90;;;;;;4964202;28;20452;-73
2022/10/23 02:47:18;;;;;;;9.43;3.95;;;14.40;99.90;;;;;;4962289;28;20333;-73
2022/10/23 02:50:04;;;;;;;11.20;4.40;;;14.30;99.90;;;;;;4943742;28;20414;-74
2022/10/23 02:52:49;;;;;;;11.85;4.32;;;14.30;99.90;;;;;;4951070;28;20049;-72
2022/10/23 02:55:41;;;;;;;11.85;4.10;;;14.30;99.90;;;;;;4950497;28;20038;-72
2022/10/23 02:58:09;;;;;;;9.47;4.07;;;14.30;99.90;;;;;;4953247;28;20083;-73
2022/10/23 03:00:38;;;;;;;14.35;3.72;;;14.30;99.90;;;;;;4951570;28;20247;-73
2022/10/23 03:03:30;;;;;;;16.52;3.97;;;14.30;99.90;;;;;;4955559;28;20078;-73
2022/10/23 03:05:56;;;;;;;15.45;4.30;;;14.40;99.90;;;;;;4961929;28;20038;-72
2022/10/23 03:08:22;;;;;;;8.13;4.05;;;14.40;99.90;;;;;;4958425;28;20026;-73
2022/10/23 03:10:47;;;;;;;7.00;3.60;;;14.40;99.90;;;;;;4959730;28;20095;-73
2022/10/23 03:13:15;;;;;;;7.13;3.65;;;14.40;99.90;;;;;;4959708;28;20451;-72
2022/10/23 03:15:41;;;;;;;18.00;3.55;;;14.40;99.90;;;;;;4959201;28;20026;-74
2022/10/23 03:18:06;;;;;;;9.82;3.33;;;14.30;99.90;;;;;;4960809;28;20035;-72
2022/10/23 03:20:35;;;;;;;8.70;3.22;;;14.30;99.90;;;;;;4955424;28;20121;-74
2022/10/23 03:23:00;;;;;;;10.05;3.50;;;14.30;99.90;;;;;;4945257;28;20118;-72
2022/10/23 03:25:26;;;;;;;11.50;3.95;;;14.30;99.90;;;;;;4950806;28;20465;-72
2022/10/23 03:27:52;;;;;;;9.98;3.50;;;14.30;99.90;;;;;;4949266;28;20035;-73
2022/10/23 03:30:18;;;;;;;6.57;3.72;;;14.30;99.90;;;;;;4954998;28;20020;-73
2022/10/23 03:32:43;;;;;;;12.82;3.97;;;14.30;99.90;;;;;;4958734;28;20081;-72
2022/10/23 03:35:09;;;;;;;9.82;3.40;;;14.30;99.90;;;;;;4958686;28;20026;-74
2022/10/23 03:37:34;;;;;;;10.15;3.58;;;14.30;99.90;;;;;;4963199;28;20465;-73
2022/10/23 03:40:03;;;;;;;8.75;3.67;;;14.20;99.90;;;;;;4958012;28;20039;-73
2022/10/23 03:42:29;;;;;;;9.45;3.50;;;14.20;99.90;;;;;;4954927;28;20102;-73
2022/10/23 03:44:56;;;;;;;9.82;3.88;;;14.20;99.90;;;;;;4950504;28;20031;-73
2022/10/23 03:47:22;;;;;;;19.55;4.10;;;14.20;99.90;;;;;;4952634;28;20050;-73
2022/10/23 03:49:47;;;;;;;8.50;3.42;;;14.30;99.90;;;;;;4954241;28;20027;-70
2022/10/23 03:52:13;;;;;;;12.98;3.33;;;14.30;99.90;;;;;;4954841;28;20425;-75
2022/10/23 03:54:39;;;;;;;5.88;3.03;;;14.30;99.90;;;;;;4952287;28;20038;-75
2022/10/23 03:57:06;;;;;;;10.35;3.78;;;14.30;99.90;;;;;;4957909;28;20078;-74
2022/10/23 03:59:32;;;;;;;13.95;3.90;;;14.20;99.90;;;;;;4955478;28;20027;-74
2022/10/23 04:01:58;;;;;;;10.57;4.53;;;14.20;99.90;;;;;;4967749;28;20035;-71
2022/10/23 04:04:23;;;;;;;7.47;3.50;;;14.20;99.90;;;;;;4955205;28;20034;-73
2022/10/23 04:06:49;;;;;;;12.68;3.90;;;14.20;99.90;;;;;;4957103;28;20019;-72
2022/10/23 04:09:15;;;;;;;9.35;3.42;;;14.10;99.90;;;;;;4965283;28;20019;-72
2022/10/23 04:11:42;;;;;;;9.45;3.40;;;14.10;99.90;;;;;;4949444;28;20035;-73
2022/10/23 04:14:11;;;;;;;12.55;3.80;;;14.10;99.90;;;;;;4949487;28;20035;-72
2022/10/23 04:16:37;;;;;;;5.13;3.53;;;14.20;99.90;;;;;;4945653;28;20038;-70
2022/10/23 04:19:03;;;;;;;6.10;3.67;;;14.20;99.90;;;;;;4950123;28;20027;-74
2022/10/23 04:21:30;;;;;;;10.45;4.13;;;14.10;99.90;;;;;;4954424;28;20329;-73
2022/10/23 04:23:58;;;;;;;9.20;4.35;;;14.10;99.90;;;;;;4962670;28;20102;-73
2022/10/23 04:26:26;;;;;;;7.03;3.63;;;14.10;99.90;;;;;;4959057;28;20089;-73
2022/10/23 04:28:52;;;;;;;9.80;3.88;;;14.10;99.90;;;;;;4956765;28;20031;-73
2022/10/23 04:31:17;;;;;;;8.70;4.63;;;14.10;99.90;;;;;;4959181;28;20053;-72
2022/10/23 04:33:43;;;;;;;19.73;4.35;;;14.10;99.90;;;;;;4950332;28;20024;-72
2022/10/23 04:36:09;;;;;;;7.15;4.43;;;14.10;99.90;;;;;;4949258;28;20050;-74
2022/10/23 04:38:36;;;;;;;13.95;4.07;;;14.00;99.90;;;;;;4955713;28;20468;-74
2022/10/23 04:41:05;;;;;;;7.90;4.57;;;14.00;99.90;;;;;;4956454;28;20341;-74
2022/10/23 04:43:33;;;;;;;9.38;4.45;;;14.00;99.90;;;;;;4954715;28;20033;-73
2022/10/23 04:46:02;;;;;;;7.53;4.70;;;14.00;99.90;;;;;;4962424;28;20421;-73
2022/10/23 04:48:31;;;;;;;13.05;5.18;;;13.90;99.90;;;;;;4967358;28;20031;-72
2022/10/23 04:50:59;;;;;;;11.77;4.43;;;14.00;99.90;;;;;;4960689;28;20433;-73
2022/10/23 04:53:26;;;;;;;12.45;5.32;;;14.00;99.90;;;;;;4964136;28;20031;-73
2022/10/23 04:55:53;;;;;;;9.38;5.68;;;14.00;99.90;;;;;;4961890;28;20066;-73
2022/10/23 04:58:19;;;;;;;12.25;5.25;;;14.00;99.90;;;;;;4956923;28;20038;-72
2022/10/23 05:00:49;;;;;;;9.55;5.15;;;14.00;99.90;;;;;;4953241;28;20034;-74
2022/10/23 05:03:15;;;;;;;14.50;5.07;;;14.00;99.90;;;;;;4955368;28;20031;-73
2022/10/23 05:05:44;;;;;;;9.63;4.88;;;14.00;99.90;;;;;;4951780;28;20042;-72
2022/10/23 05:08:12;;;;;;;12.95;5.43;;;14.00;99.90;;;;;;4957364;28;20652;-72
2022/10/23 05:10:38;;;;;;;13.20;4.95;;;14.00;99.90;;;;;;4959497;28;20402;-73
2022/10/23 05:13:04;;;;;;;13.30;4.93;;;14.00;99.90;;;;;;4965188;28;20475;-73
2022/10/23 05:15:32;;;;;;;19.60;5.53;;;14.00;99.90;;;;;;4965378;28;20062;-73
2022/10/23 05:18:04;;;;;;;9.20;4.75;;;14.00;99.90;;;;;;4963869;28;20115;-74
2022/10/23 05:20:33;;;;;;;9.50;4.97;;;14.00;99.90;;;;;;4961664;28;20027;-73
2022/10/23 05:23:01;;;;;;;11.57;5.35;;;13.90;99.90;;;;;;4956648;28;20042;-73
2022/10/23 05:25:29;;;;;;;13.73;5.00;;;13.90;99.90;;;;;;4955881;28;20031;-73
2022/10/23 05:27:57;;;;;;;12.10;5.45;;;13.90;99.90;;;;;;4962506;28;20055;-73
2022/10/23 05:30:25;;;;;;;19.10;4.78;;;13.90;99.90;;;;;;4954248;28;20154;-72
2022/10/23 05:32:53;;;;;;;12.85;5.40;;;13.90;99.90;;;;;;4959903;28;20035;-73
2022/10/23 05:35:22;;;;;;;15.57;5.00;;;13.90;99.90;;;;;;4959536;28;20031;-73
2022/10/23 05:37:52;;;;;;;9.75;4.63;;;14.00;99.90;;;;;;4968752;28;20347;-73
2022/10/23 05:40:18;;;;;;;11.07;4.35;;;14.00;99.90;;;;;;4966984;28;20042;-73
2022/10/23 05:42:43;;;;;;;9.10;4.78;;;14.00;99.90;;;;;;4966962;28;20031;-74
2022/10/23 05:45:11;;;;;;;8.93;5.20;;;14.00;99.90;;;;;;4970273;28;20026;-73
2022/10/23 05:47:42;;;;;;;9.13;5.20;;;14.00;99.90;;;;;;4964747;28;20039;-73
2022/10/23 05:50:07;;;;;;;10.75;4.63;;;14.00;99.90;;;;;;4963980;28;20114;-72
2022/10/23 05:52:35;;;;;;;14.80;4.28;;;14.00;99.90;;;;;;4952832;28;20123;-72
2022/10/23 05:55:01;;;;;;;15.75;4.60;;;14.00;99.90;;;;;;4949713;28;20035;-72
2022/10/23 05:57:27;;;;;;;16.60;4.53;;;14.10;99.90;;;;;;4954108;28;20038;-73
2022/10/23 05:59:54;;;;;;;6.43;3.97;;;14.10;99.90;;;;;;4956840;28;20026;-72
2022/10/23 06:02:20;;;;;;;15.00;3.88;;;14.10;99.90;;;;;;4961134;28;20035;-72
2022/10/23 06:04:45;;;;;;;8.77;4.40;;;14.10;99.90;;;;;;4965413;28;20384;-73
2022/10/23 06:07:11;;;;;;;8.93;4.35;;;14.10;99.90;;;;;;4960662;28;20453;-72
2022/10/23 06:09:39;;;;;;;17.88;4.55;;;14.10;99.90;;;;;;4957931;28;20059;-73
2022/10/23 06:12:07;;;;;;;9.70;4.53;;;14.10;99.90;;;;;;4955984;28;20102;-73
2022/10/23 06:14:33;;;;;;;9.32;4.25;;;14.20;99.90;;;;;;4948275;28;20127;-72
2022/10/23 06:16:58;;;;;;;15.82;4.32;;;14.20;99.90;;;;;;4947159;28;20521;-72
2022/10/23 06:19:24;;;;;;;10.65;4.25;;;14.20;99.90;;;;;;4951567;28;20019;-73
2022/10/23 06:21:49;;;;;;;11.25;4.22;;;14.20;99.90;;;;;;4948056;28;20336;-73
2022/10/23 06:24:17;;;;;;;7.45;3.90;;;14.20;99.90;;;;;;4962134;28;20110;-73
2022/10/23 06:26:43;;;;;;;18.25;4.45;;;14.20;99.90;;;;;;4960157;28;20030;-73
2022/10/23 06:29:11;;;;;;;10.68;4.28;;;14.20;99.90;;;;;;4958156;28;20036;-72
2022/10/23 06:31:37;;;;;;;11.32;4.25;;;14.20;99.90;;;;;;4959973;28;20401;-73
2022/10/23 06:34:03;;;;;;;6.70;3.88;;;14.20;99.90;;;;;;4961715;28;20042;-72
2022/10/23 06:36:28;;;;;;;14.68;3.95;;;14.30;99.90;;;;;;4960019;28;20034;-70
2022/10/23 06:38:55;;;;;;;10.45;3.97;;;14.30;99.90;;;;;;4955335;28;20079;-74
2022/10/23 06:41:21;;;;;;;13.50;4.28;;;14.30;99.90;;;;;;4953483;28;20089;-72
2022/10/23 06:43:48;;;;;;;17.17;3.83;;;14.30;99.90;;;;;;4949968;28;20038;-73
2022/10/23 06:46:17;;;;;;;9.98;3.72;;;14.30;99.90;;;;;;4952168;28;20031;-73
2022/10/23 06:48:45;;;;;;;10.52;3.78;;;14.40;99.90;;;;;;4954474;28;20074;-73
2022/10/23 06:51:14;;;;;;;12.38;4.65;;;14.40;99.90;;;;;;4947219;28;20032;-73
2022/10/23 06:53:45;;;;;;;13.10;4.10;;;14.40;99.90;;;;;;4957804;28;20483;-73
2022/10/23 06:56:11;;;;;;;9.35;3.80;;;14.50;99.90;;;;;;4948199;28;20047;-73
2022/10/23 06:58:38;;;;;;;6.57;3.72;;;14.50;99.90;;;;;;4955575;28;20055;-74
2022/10/23 07:01:06;;;;;;;15.88;3.55;;;14.50;99.90;;;;;;4952726;28;20024;-73
2022/10/23 07:03:33;;;;;;;7.80;3.92;;;14.60;99.90;;;;;;4952736;28;20037;-72
2022/10/23 07:06:02;;;;;;;15.85;4.13;;;14.60;99.90;;;;;;4949226;28;20035;-75
2022/10/23 07:08:28;;;;;;;10.68;3.28;;;14.70;99.90;;;;;;4943736;28;20038;-72
2022/10/23 07:10:56;;;;;;;6.28;3.20;;;14.70;99.90;;;;;;4946430;28;20088;-72
2022/10/23 07:13:24;;;;;;;9.13;4.18;;;14.70;99.90;;;;;;4949504;28;20123;-72
2022/10/23 07:15:50;;;;;;;15.02;4.03;;;14.80;99.90;;;;;;4958815;28;20030;-72
2022/10/23 07:18:18;;;;;;;8.30;3.85;;;14.80;99.90;;;;;;4956324;28;20039;-73
2022/10/23 07:20:46;;;;;;;7.70;3.70;;;14.90;99.90;;;;;;4954220;28;20140;-72
2022/10/23 07:23:11;;;;;;;11.68;3.55;;;14.90;99.90;;;;;;4954173;28;20027;-72
2022/10/23 07:25:37;;;;;;;7.65;3.80;;;14.90;99.90;;;;;;4951420;28;20090;-72
2022/10/23 07:28:04;;;;;;;8.10;3.28;;;14.90;99.90;;;;;;4952808;28;20105;-73
2022/10/23 07:30:30;;;;;;;11.10;3.75;;;15.00;99.90;;;;;;4945194;28;20440;-73
2022/10/23 07:32:56;;;;;;;10.30;3.97;;;15.00;99.90;;;;;;4956744;28;20035;-73
2022/10/23 07:35:21;;;;;;;6.88;3.60;;;15.10;99.90;;;;;;4952473;28;20368;-73
2022/10/23 07:37:49;;;;;;;9.93;4.00;;;15.20;99.90;;;;;;4956400;28;20078;-73
2022/10/23 07:40:16;;;;;;;8.32;3.58;;;15.20;99.90;;;;;;4947948;28;20054;-72
2022/10/23 07:42:41;;;;;;;9.45;3.17;;;15.30;99.90;;;;;;4954342;28;20081;-73
2022/10/23 07:45:11;;;;;;;8.68;3.67;;;15.40;99.90;;;;;;4967538;28;20368;-73
2022/10/23 07:47:39;;;;;;;7.75;3.70;;;15.40;99.90;;;;;;4954165;28;20468;-73
2022/10/23 07:50:10;;;;;;;12.20;3.55;;;15.40;99.90;;;;;;4954303;28;20039;-74
2022/10/23 07:52:38;;;;;;;11.27;3.63;;;15.40;99.90;;;;;;4951253;28;20035;-75
2022/10/23 07:55:06;;;;;;;8.20;3.80;;;15.50;99.90;;;;;;4952989;28;20026;-73
2022/10/23 07:57:32;;;;;;;9.20;3.00;;;15.50;99.90;;;;;;4951568;28;20409;-73
2022/10/23 07:59:57;;;;;;;13.15;3.35;;;15.50;99.90;;;;;;4958009;28;20035;-72
2022/10/23 08:02:25;;;;;;;8.32;3.97;;;15.50;99.90;;;;;;4947262;28;20357;-74
2022/10/23 08:04:51;;;;;;;8.55;3.40;;;15.60;99.90;;;;;;4955254;28;20090;-73
2022/10/23 08:07:19;;;;;;;10.88;3.85;;;15.60;99.90;;;;;;4952715;28;20468;-73
2022/10/23 08:09:44;;;;;;;9.38;3.72;;;15.70;99.90;;;;;;4954071;28;20034;-72
2022/10/23 08:12:12;;;;;;;8.10;4.18;;;15.80;99.90;;;;;;4968010;28;20042;-73
2022/10/23 08:14:40;;;;;;;8.20;3.80;;;15.90;99.90;;;;;;4954496;28;20023;-74
2022/10/23 08:17:08;;;;;;;13.93;3.92;;;15.90;99.90;;;;;;4954260;28;20032;-72
2022/10/23 08:19:35;;;;;;;11.00;3.88;;;16.00;99.90;;;;;;4969585;28;20031;-73
2022/10/23 08:22:02;;;;;;;10.82;3.70;;;16.00;99.90;;;;;;4951685;28;20026;-73
2022/10/23 08:24:28;;;;;;;4.55;3.20;;;16.10;99.90;;;;;;4953845;28;20053;-72
2022/10/23 08:26:57;;;;;;;8.95;4.40;;;16.10;99.90;;;;;;4967151;28;20031;-73
2022/10/23 08:29:27;;;;;;;9.57;3.13;;;16.20;99.90;;;;;;4950627;28;20063;-73
2022/10/23 08:31:55;;;;;;;4.75;3.20;;;16.30;99.90;;;;;;4950893;28;20023;-73
2022/10/23 08:34:21;;;;;;;6.63;3.47;;;16.40;99.90;;;;;;4950223;28;20023;-75
2022/10/23 08:36:46;;;;;;;6.57;3.55;;;16.50;99.90;;;;;;4951136;28;20102;-71
2022/10/23 08:39:12;;;;;;;4.95;3.25;;;16.70;99.90;;;;;;4953519;28;20118;-73
2022/10/23 08:41:41;;;;;;;9.70;3.75;;;16.80;99.90;;;;;;4953552;28;20038;-73
2022/10/23 08:44:13;;;;;;;5.05;3.00;;;16.80;99.90;;;;;;4961291;28;20356;-73
2022/10/23 08:46:43;;;;;;;9.45;3.65;;;16.80;99.90;;;;;;4955800;28;20125;-73
2022/10/23 08:49:35;;;;;;;13.15;3.67;;;16.90;99.90;;;;;;4952873;28;20035;-73
2022/10/23 08:52:14;;;;;;;7.00;3.10;;;16.90;99.90;;;;;;4947514;28;20110;-74
2022/10/23 08:54:55;;;;;;;7.30;3.58;;;16.90;99.90;;;;;;4953840;28;20357;-73
2022/10/23 08:57:25;;;;;;;7.22;3.20;;;17.10;99.90;;;;;;4949289;28;20023;-74
2022/10/23 08:59:59;;;;;;;8.90;3.28;;;17.10;99.90;;;;;;4951203;28;20031;-73
2022/10/23 09:02:46;;;;;;;11.40;3.85;;;17.20;99.90;;;;;;4949954;28;20039;-75
2022/10/23 09:05:29;;;;;;;9.15;3.60;;;17.20;99.90;;;;;;4952024;28;20038;-73
2022/10/23 09:08:18;;;;;;;;;;;17.20;99.90;;;;;;4954526;28;20101;-74
2022/10/23 09:11:02;;;;;;;5.90;3.60;;;17.20;99.90;;;;;;4959115;28;19910;-73
2022/10/23 09:14:01;;;;;;;8.63;3.22;;;17.20;99.90;;;;;;4950253;28;20097;-74
2022/10/23 09:16:41;;;;;;;235.75;119.60;;;17.10;99.90;;;;;;4948548;28;20041;-73
2022/10/23 09:19:13;;;;;;;11.68;3.50;;;17.20;99.90;;;;;;4950858;28;20027;-73
2022/10/23 09:21:39;;;;;;;7.32;2.95;;;17.10;99.90;;;;;;4948771;28;20433;-74
2022/10/23 09:24:10;;;;;;;5.70;2.88;;;17.10;99.90;;;;;;4949396;28;20038;-76
2022/10/23 09:26:41;;;;;;;9.45;3.17;;;17.10;99.90;;;;;;4952983;28;20054;-72
2022/10/23 09:29:28;;;;;;;4.63;3.00;;;17.10;99.90;;;;;;4958312;28;20516;-72
2022/10/23 09:32:00;;;;;;;4.28;3.40;;;17.20;99.90;;;;;;4957538;28;20630;-73
2022/10/23 09:34:28;;;;;;;6.47;2.83;;;17.20;99.90;;;;;;4952069;28;20154;-74
2022/10/23 09:37:03;;;;;;;5.63;3.10;;;17.20;99.90;;;;;;4947893;28;20143;-77
2022/10/23 09:39:35;;;;;;;47.80;14.98;;;17.30;99.90;;;;;;4952257;28;20046;-73
2022/10/23 09:42:20;;;;;;;9.35;3.17;;;17.40;99.90;;;;;;4952976;28;20062;-73
2022/10/23 09:44:50;;;;;;;5.70;2.78;;;17.50;99.90;;;;;;4952677;28;20094;-74
2022/10/23 09:47:19;;;;;;;7.88;2.78;;;17.50;99.90;;;;;;4949288;28;20031;-73
2022/10/23 09:49:48;;;;;;;8.60;3.03;;;17.50;99.90;;;;;;4956684;28;20608;-73
2022/10/23 09:52:15;;;;;;;10.10;2.92;;;17.50;99.90;;;;;;4953638;28;20118;-73
2022/10/23 09:54:53;;;;;;;8.15;2.70;;;17.60;99.90;;;;;;4955955;28;20019;-75
2022/10/23 09:57:38;;;;;;;5.05;2.60;;;17.70;99.90;;;;;;4943108;28;20460;-72
2022/10/23 10:00:22;;;;;;;12.10;2.67;;;17.70;99.90;;;;;;4957077;28;20042;-74
2022/10/23 10:03:02;;;;;;;9.07;2.45;;;17.70;99.90;;;;;;4949468;28;20032;-73
2022/10/23 10:05:36;;;;;;;8.02;2.80;;;17.80;99.90;;;;;;4958644;28;20648;-74
2022/10/23 10:08:19;;;;;;;7.57;2.92;;;17.90;99.90;;;;;;4959357;28;20505;-72
2022/10/23 10:11:09;;;;;;;5.05;2.75;;;17.90;99.90;;;;;;4954329;28;20067;-76
2022/10/23 10:13:38;;;;;;;5.13;2.88;;;17.90;99.90;;;;;;4955995;28;20086;-74
2022/10/23 10:16:25;;;;;;;12.63;3.92;;;18.00;99.90;;;;;;4959901;28;20126;-74
2022/10/23 10:19:07;;;;;;;7.65;2.90;;;18.00;99.90;;;;;;4969446;28;20031;-73
2022/10/23 10:21:56;;;;;;;16.90;6.95;;;18.10;99.90;;;;;;4953494;28;20027;-73
2022/10/23 10:25:00;;;;;;;13.07;4.93;;;18.10;99.90;;;;;;4957349;28;20443;-74
2022/10/23 10:27:44;;;;;;;5.22;3.05;;;18.20;99.90;;;;;;4967051;28;20035;-74
2022/10/23 10:30:22;;;;;;;5.88;3.15;;;18.20;99.90;;;;;;4952191;28;20078;-74
2022/10/23 10:33:02;;;;;;;5.85;2.90;;;18.20;99.90;;;;;;4953695;28;20119;-74
2022/10/23 10:35:50;;;;;;;4.07;2.72;;;18.30;99.90;;;;;;4949606;28;20020;-74
2022/10/23 10:38:28;;;;;;;11.15;3.10;;;18.40;99.90;;;;;;4952514;28;20038;-74
2022/10/23 10:41:23;;;;;;;7.82;2.90;;;18.40;99.90;;;;;;4962001;28;20118;-74
2022/10/23 10:44:14;;;;;;;7.47;3.35;;;18.50;99.90;;;;;;4951232;28;20089;-74
2022/10/23 10:47:09;;;;;;;10.48;2.63;;;18.60;99.90;;;;;;4958094;28;20015;-74
2022/10/23 10:49:41;;;;;;;12.52;3.20;;;18.80;99.90;;;;;;4954016;28;20039;-74
2022/10/23 10:52:24;;;;;;;8.13;2.95;;;18.80;99.90;;;;;;4955552;28;20102;-74
2022/10/23 10:55:09;;;;;;;10.40;2.83;;;18.80;99.90;;;;;;4954351;28;20028;-75
2022/10/23 10:57:46;;;;;;;6.05;3.20;;;18.80;99.90;;;;;;4953030;28;20015;-74
2022/10/23 11:00:22;;;;;;;6.93;2.90;;;18.80;99.90;;;;;;4952567;28;20035;-74
2022/10/23 11:02:57;;;;;;;32.30;9.80;;;18.80;99.90;;;;;;4955239;28;20465;-73
2022/10/23 11:05:36;;;;;;;8.70;3.13;;;18.80;99.90;;;;;;4959202;28;20328;-77
2022/10/23 11:08:29;;;;;;;12.80;3.83;;;18.80;99.90;;;;;;4957347;28;20105;-76
2022/10/23 11:11:00;;;;;;;10.98;3.13;;;18.80;99.90;;;;;;4973364;28;20035;-75
2022/10/23 11:13:39;;;;;;;8.60;2.83;;;18.80;99.90;;;;;;4958568;28;20086;-75
2022/10/23 11:16:31;;;;;;;6.32;3.10;;;18.70;99.90;;;;;;4952607;28;20120;-75
2022/10/23 11:19:13;;;;;;;6.75;3.30;;;18.80;99.90;;;;;;4955271;28;20090;-76
2022/10/23 11:21:57;;;;;;;12.63;4.07;;;18.90;99.90;;;;;;4953010;28;20055;-76
2022/10/23 11:24:26;;;;;;;6.65;4.85;;;19.00;99.90;;;;;;4948594;28;20383;-75
2022/10/23 11:27:12;;;;;;;14.35;5.03;;;19.30;99.90;;;;;;4951388;28;20039;-73
2022/10/23 11:29:47;;;;;;;16.13;4.85;;;19.50;99.90;;;;;;4951387;28;20122;-75
2022/10/23 11:32:13;;;;;;;18.17;5.10;;;19.60;99.90;;;;;;4949765;28;20034;-75
2022/10/23 11:34:56;;;;;;;91.07;42.25;;;19.80;99.90;;;;;;4953008;28;20030;-75
2022/10/23 11:37:23;;;;;;;9.10;4.15;;;19.90;99.90;;;;;;4952617;28;20090;-75
2022/10/23 11:40:07;;;;;;;7.18;3.22;;;20.00;99.90;;;;;;4956394;28;20031;-76
2022/10/23 11:42:38;;;;;;;9.15;3.13;;;20.00;99.90;;;;;;4954437;28;20362;-75
2022/10/23 11:45:36;;;;;;;8.20;2.88;;;20.00;99.90;;;;;;4955009;28;20027;-75
2022/10/23 11:48:21;;;;;;;3.78;2.40;;;20.10;99.90;;;;;;4962120;28;20512;-77
2022/10/23 11:50:46;;;;;;;8.38;2.47;;;20.10;99.90;;;;;;4957740;28;20023;-76
2022/10/23 11:53:38;;;;;;;11.75;2.80;;;20.10;99.90;;;;;;4957997;28;20449;-75
2022/10/23 11:56:04;;;;;;;7.45;2.40;;;20.10;99.90;;;;;;4960124;28;20354;-76
2022/10/23 11:58:54;;;;;;;5.60;2.42;;;20.20;99.90;;;;;;4960409;28;20478;-76
2022/10/23 12:01:34;;;;;;;10.52;2.38;;;20.20;99.90;;;;;;4970317;28;20058;-76
2022/10/23 12:04:14;;;;;;;13.70;2.72;;;20.20;99.90;;;;;;4954856;28;20027;-75
2022/10/23 12:06:46;;;;;;;8.35;1.98;;;20.30;99.90;;;;;;4953092;28;20025;-76
2022/10/23 12:09:36;;;;;;;132.05;57.10;;;20.30;99.90;;;;;;4955681;28;20035;-74
2022/10/23 12:12:07;;;;;;;53.22;20.83;;;20.60;99.90;;;;;;4951006;28;20118;-70
2022/10/23 12:14:33;;;;;;;8.45;2.30;;;20.90;99.90;;;;;;4959164;28;20035;-74
2022/10/23 12:16:59;;;;;;;9.23;2.17;;;21.20;99.90;;;;;;4966093;28;20033;-75
2022/10/23 12:19:29;;;;;;;7.22;2.30;;;21.30;99.90;;;;;;4965326;28;20087;-77
2022/10/23 12:21:58;;;;;;;8.25;2.30;;;21.50;99.90;;;;;;4965227;28;20041;-73
2022/10/23 12:24:41;;;;;;;7.55;2.13;;;21.70;99.90;;;;;;4962670;28;20104;-75
2022/10/23 12:27:31;;;;;;;5.20;2.28;;;22.00;99.90;;;;;;4956868;28;20118;-75
2022/10/23 12:30:12;;;;;;;7.25;2.33;;;22.20;99.90;;;;;;4957789;28;20074;-76
2022/10/23 12:32:56;;;;;;;7.22;2.15;;;22.30;99.90;;;;;;4956512;28;20046;-76
2022/10/23 12:35:58;;;;;;;3.67;2.13;;;22.30;99.90;;;;;;4961657;28;20031;-76
2022/10/23 12:38:27;;;;;;;2.67;1.67;;;22.20;99.90;;;;;;4955603;28;20023;-78
2022/10/23 12:41:14;;;;;;;7.00;2.10;;;22.10;99.90;;;;;;4954614;28;20053;-76
2022/10/23 12:43:42;;;;;;;3.67;1.80;;;22.20;99.90;;;;;;4954419;28;20529;-76
2022/10/23 12:46:20;;;;;;;5.88;2.33;;;22.30;99.90;;;;;;4957498;28;20027;-77
2022/10/23 12:48:51;;;;;;;5.70;1.92;;;22.40;99.90;;;;;;4955093;28;20031;-76
2022/10/23 12:51:23;;;;;;;7.40;2.00;;;22.60;99.90;;;;;;4953398;29;20050;-75
2022/10/23 12:53:49;;;;;;;2.63;1.98;;;22.90;99.90;;;;;;4958907;28;20097;-75
2022/10/23 12:56:18;;;;;;;7.10;1.98;;;23.20;99.90;;;;;;4955821;28;20151;-74
2022/10/23 12:58:53;;;;;;;35.03;12.07;;;23.00;99.90;;;;;;4952115;28;20763;-73
2022/10/23 13:01:35;;;;;;;4.70;2.13;;;22.80;99.90;;;;;;4950682;28;20468;-75
2022/10/23 13:04:12;;;;;;;4.18;1.73;;;22.70;99.90;;;;;;4954988;28;20054;-76
2022/10/23 13:06:38;;;;;;;6.05;1.70;;;22.60;99.90;;;;;;4979493;28;20064;-75
2022/10/23 13:09:06;;;;;;;6.18;1.88;;;22.70;99.90;;;;;;4958070;28;20118;-75